Time;durP1;ratioP1;P1;durP2;ratioP2;P2;SDS_P1;SDS_P2;PMS_P1;PMS_P2;Temp;Humidity;BMP_temperature;BMP_pressure;BME280_temperature;BME280_humidity;BME280_pressure;Samples;Min_cycle;Max_cycle;Signal;HPM_P1;HPM_P2
2021/12/01 00:00:26;;;;;;;;;;;;;;;14.99;69.46;100022.78;5080095;28;19916;-86
2021/12/01 00:02:55;;;;;;;;;;;;;;;15.45;69.05;100010.03;5080048;28;19928;-84
2021/12/01 00:05:21;;;;;;;;;;;;;;;15.04;68.92;100009.66;5080136;28;19912;-85
2021/12/01 00:07:48;;;;;;;;;;;;;;;14.76;68.37;100016.41;5061368;28;19952;-84
2021/12/01 00:10:14;;;;;;;;;;;;;;;15.10;66.68;100007.41;5061439;28;19917;-84
2021/12/01 00:12:39;;;;;;;;;;;;;;;15.10;66.90;99991.06;5079589;28;19917;-85
2021/12/01 00:15:05;;;;;;;;;;;;;;;15.27;67.06;99965.22;5063177;28;19963;-86
2021/12/01 00:17:30;;;;;;;;;;;;;;;14.94;67.52;99959.63;5079533;28;20019;-85
2021/12/01 00:19:56;;;;;;;;;;;;;;;15.41;67.31;99951.31;5078829;28;19924;-84
2021/12/01 00:22:21;;;;;;;;;;;;;;;16.28;63.42;99940.38;5079293;28;19987;-85
2021/12/01 00:24:46;;;;;;;;;;;;;;;14.67;67.92;99959.97;5078843;28;19917;-85
2021/12/01 00:27:11;;;;;;;;;;;;;;;15.03;66.56;99936.22;5079978;28;19917;-86
2021/12/01 00:29:37;;;;;;;;;;;;;;;15.38;66.13;99932.47;5078606;28;19971;-85
2021/12/01 00:32:03;;;;;;;;;;;;;;;15.68;65.00;99914.56;5063949;28;20352;-85
2021/12/01 00:34:28;;;;;;;;;;;;;;;14.89;68.30;99940.94;5062867;28;19947;-85
2021/12/01 00:36:53;;;;;;;;;;;;;;;15.45;66.21;99902.88;5078778;28;20290;-85
2021/12/01 00:39:19;;;;;;;;;;;;;;;15.14;67.56;99905.38;5061416;28;19924;-86
2021/12/01 00:41:44;;;;;;;;;;;;;;;14.98;67.75;99900.34;5063595;28;19984;-85
2021/12/01 00:44:10;;;;;;;;;;;;;;;15.13;66.45;99892.78;5078860;28;20322;-85
2021/12/01 00:46:52;;;;;;;;;;;;;;;16.02;65.40;99890.78;5063220;28;19916;-86
2021/12/01 00:49:18;;;;;;;;;;;;;;;15.35;65.55;99891.84;5063129;28;19925;-85
2021/12/01 00:51:43;;;;;;;;;;;;;;;15.47;65.07;99873.63;5079329;28;19917;-86
2021/12/01 00:54:08;;;;;;;;;;;;;;;15.39;66.91;99871.53;5079780;28;19912;-86
2021/12/01 00:56:33;;;;;;;;;;;;;;;15.97;63.54;99873.06;5079535;28;19924;-85
2021/12/01 00:59:00;;;;;;;;;;;;;;;15.30;66.87;99864.13;5079661;28;19984;-85
2021/12/01 01:01:25;;;;;;;;;;;;;;;15.64;65.59;99883.09;5062500;28;20393;-87
2021/12/01 01:03:50;;;;;;;;;;;;;;;14.82;68.47;99873.47;5061746;28;19917;-85
2021/12/01 01:06:16;;;;;;;;;;;;;;;14.59;69.86;99870.72;5062708;28;19917;-85
2021/12/01 01:08:42;;;;;;;;;;;;;;;16.00;62.67;99830.00;5079531;28;19923;-86
2021/12/01 01:11:10;;;;;;;;;;;;;;;15.53;65.56;99843.97;5079637;28;19908;-85
2021/12/01 01:16:23;;;;;;;;;;;;;;;15.17;65.25;99848.81;5063814;28;19924;-84
2021/12/01 01:18:57;;;;;;;;;;;;;;;15.02;65.61;99823.69;5081885;28;19997;-85
2021/12/01 01:21:23;;;;;;;;;;;;;;;15.34;64.84;99814.69;5065112;28;19917;-85
2021/12/01 01:23:48;;;;;;;;;;;;;;;15.49;63.62;99800.75;5080526;28;19971;-85
2021/12/01 01:26:15;;;;;;;;;;;;;;;16.03;61.99;99804.34;5080435;28;19917;-84
2021/12/01 01:28:41;;;;;;;;;;;;;;;15.47;63.25;99798.16;5080689;28;19912;-84
2021/12/01 01:31:06;;;;;;;;;;;;;;;15.18;64.49;99787.00;5077596;28;20027;-84
2021/12/01 01:33:31;;;;;;;;;;;;;;;15.29;63.41;99772.47;5078137;28;19972;-85
2021/12/01 01:35:57;;;;;;;;;;;;;;;15.02;68.38;99803.75;5078080;28;19921;-84
2021/12/01 01:38:22;;;;;;;;;;;;;;;15.28;64.38;99777.06;5077803;28;19917;-87
2021/12/01 01:40:48;;;;;;;;;;;;;;;14.93;66.11;99761.81;5077638;28;20401;-84
2021/12/01 01:43:14;;;;;;;;;;;;;;;15.75;63.17;99752.19;5076668;28;19917;-84
2021/12/01 01:45:39;;;;;;;;;;;;;;;15.27;64.29;99730.88;5076964;28;20007;-85
2021/12/01 01:48:08;;;;;;;;;;;;;;;15.48;62.78;99756.28;5077752;28;20346;-85
2021/12/01 01:50:38;;;;;;;;;;;;;;;14.98;64.00;99732.34;5078004;28;19916;-85
2021/12/01 01:53:08;;;;;;;;;;;;;;;15.59;63.26;99723.53;5076883;28;19917;-83
2021/12/01 01:55:35;;;;;;;;;;;;;;;16.08;60.93;99717.50;5062510;28;19917;-83
2021/12/01 01:58:00;;;;;;;;;;;;;;;15.39;62.01;99714.31;5077133;28;19928;-86
2021/12/01 02:00:27;;;;;;;;;;;;;;;15.78;61.77;99705.59;5076689;28;19916;-86
2021/12/01 02:02:53;;;;;;;;;;;;;;;15.30;62.35;99692.47;5076118;28;19924;-84
2021/12/01 02:05:19;;;;;;;;;;;;;;;14.89;63.83;99690.41;5076487;28;19917;-85
2021/12/01 02:07:44;;;;;;;;;;;;;;;14.85;63.81;99678.03;5076865;28;19984;-86
2021/12/01 02:10:10;;;;;;;;;;;;;;;15.07;63.30;99687.13;5077883;28;19917;-85
2021/12/01 02:12:37;;;;;;;;;;;;;;;15.35;62.61;99665.66;5061430;28;19924;-84
2021/12/01 02:15:03;;;;;;;;;;;;;;;14.41;65.42;99671.69;5077532;28;19905;-85
2021/12/01 02:17:28;;;;;;;;;;;;;;;15.43;63.48;99654.97;5077490;28;19932;-85
2021/12/01 02:19:55;;;;;;;;;;;;;;;15.22;63.54;99642.22;5076007;28;19923;-85
2021/12/01 02:22:20;;;;;;;;;;;;;;;15.49;62.61;99649.00;5076406;28;19921;-84
2021/12/01 02:24:46;;;;;;;;;;;;;;;15.58;63.24;99641.88;5077234;28;19923;-82
2021/12/01 02:27:12;;;;;;;;;;;;;;;15.60;62.38;99624.38;5076983;28;19916;-83
2021/12/01 02:29:38;;;;;;;;;;;;;;;15.26;63.74;99623.72;5077385;28;19916;-83
2021/12/01 02:32:03;;;;;;;;;;;;;;;16.24;61.21;99608.69;5077091;28;19901;-83
2021/12/01 02:34:31;;;;;;;;;;;;;;;15.14;64.06;99622.06;5061113;28;20394;-82
2021/12/01 02:36:58;;;;;;;;;;;;;;;15.43;63.30;99619.56;5075897;28;20286;-82
2021/12/01 02:39:24;;;;;;;;;;;;;;;15.35;63.21;99608.44;5076316;28;19921;-84
2021/12/01 02:41:54;;;;;;;;;;;;;;;15.18;63.30;99599.88;5061276;28;19990;-84
2021/12/01 02:44:20;;;;;;;;;;;;;;;15.45;62.61;99581.25;5064093;28;19923;-84
2021/12/01 02:46:46;;;;;;;;;;;;;;;14.79;65.37;99561.47;5081402;28;19917;-83
2021/12/01 02:49:11;;;;;;;;;;;;;;;15.16;64.25;99571.06;5066006;28;20381;-84
2021/12/01 02:51:37;;;;;;;;;;;;;;;14.71;66.17;99558.56;5065554;28;19916;-85
2021/12/01 02:54:03;;;;;;;;;;;;;;;15.50;63.76;99568.06;5080863;28;19912;-84
2021/12/01 02:56:30;;;;;;;;;;;;;;;14.85;65.88;99550.06;5064030;28;20328;-83
2021/12/01 02:58:56;;;;;;;;;;;;;;;14.65;66.59;99553.63;5064956;28;19924;-85
2021/12/01 03:01:22;;;;;;;;;;;;;;;15.06;65.69;99544.59;5080700;28;19970;-83
2021/12/01 03:03:48;;;;;;;;;;;;;;;14.49;67.47;99544.03;5079921;28;19924;-83
2021/12/01 03:06:14;;;;;;;;;;;;;;;14.53;66.70;99533.75;5080197;28;19924;-83
2021/12/01 03:08:43;;;;;;;;;;;;;;;14.01;68.69;99528.13;5079524;28;19904;-84
2021/12/01 03:11:08;;;;;;;;;;;;;;;14.33;67.05;99502.78;5062884;28;19927;-84
2021/12/01 03:13:34;;;;;;;;;;;;;;;14.85;65.84;99498.31;5078970;28;19917;-83
2021/12/01 03:15:59;;;;;;;;;;;;;;;14.88;65.75;99498.03;5078868;28;19921;-83
2021/12/01 03:18:25;;;;;;;;;;;;;;;14.24;66.38;99487.25;5079386;28;19932;-85
2021/12/01 03:20:51;;;;;;;;;;;;;;;14.66;66.33;99473.69;5079689;28;19962;-83
2021/12/01 03:23:17;;;;;;;;;;;;;;;14.39;66.75;99463.28;5079803;28;19988;-83
2021/12/01 03:25:42;;;;;;;;;;;;;;;14.36;66.17;99465.28;5079836;28;19960;-83
2021/12/01 03:28:08;;;;;;;;;;;;;;;14.22;74.82;99460.19;5079060;28;19925;-84
2021/12/01 03:30:34;;;;;;;;;;;;;;;14.61;66.96;99448.75;5078443;28;19917;-84
2021/12/01 03:33:04;;;;;;;;;;;;;;;15.12;65.80;99433.41;5079010;28;19917;-82
2021/12/01 03:35:30;;;;;;;;;;;;;;;14.10;67.65;99440.34;5079675;28;19974;-85
2021/12/01 03:37:55;;;;;;;;;;;;;;;14.51;66.92;99430.47;5079759;28;19921;-83
2021/12/01 03:40:20;;;;;;;;;;;;;;;14.81;66.70;99412.47;5064078;28;19927;-84
2021/12/01 03:42:46;;;;;;;;;;;;;;;14.23;67.34;99412.09;5080036;28;19960;-83
2021/12/01 03:45:12;;;;;;;;;;;;;;;14.11;67.39;99409.41;5080078;28;19916;-84
2021/12/01 03:47:38;;;;;;;;;;;;;;;14.29;67.54;99395.22;5079412;28;20401;-85
2021/12/01 03:50:04;;;;;;;;;;;;;;;14.17;68.20;99387.13;5079293;28;19956;-83
2021/12/01 03:52:29;;;;;;;;;;;;;;;14.35;67.40;99375.66;5078868;28;19924;-83
2021/12/01 03:54:55;;;;;;;;;;;;;;;-147.53;71.35;59759.91;5064145;28;19917;-83
2021/12/01 03:58:19;;;;;;;;;;;;;;;-147.53;100.00;59759.91;5064740;28;20871;-84
2021/12/01 04:01:42;;;;;;;;;;;;;;;-147.53;100.00;59759.91;5064103;28;19917;-84
2021/12/01 04:05:06;;;;;;;;;;;;;;;-147.53;100.00;59759.91;5079031;28;20271;-84
2021/12/01 04:08:30;;;;;;;;;;;;;;;-147.53;100.00;59759.91;5079644;28;20397;-84
2021/12/01 04:11:54;;;;;;;;;;;;;;;-147.53;100.00;59759.91;5081082;28;19962;-84
2021/12/01 04:15:18;;;;;;;;;;;;;;;-147.53;100.00;59759.91;5065510;28;19944;-83
2021/12/01 04:18:43;;;;;;;;;;;;;;;-147.53;100.00;59759.91;5062547;28;19925;-83
2021/12/01 04:22:07;;;;;;;;;;;;;;;-147.53;100.00;59759.91;5062923;28;19921;-84
2021/12/01 04:25:30;;;;;;;;;;;;;;;-147.53;100.00;59759.91;5079270;28;19986;-85
2021/12/01 04:28:55;;;;;;;;;;;;;;;-147.53;100.00;59759.91;5078237;28;20004;-84
2021/12/01 04:32:19;;;;;;;;;;;;;;;-147.53;100.00;59759.91;5079049;28;19920;-85
2021/12/01 04:35:43;;;;;;;;;;;;;;;-147.53;100.00;59759.91;5077746;28;19921;-84
2021/12/01 04:39:09;;;;;;;;;;;;;;;-147.53;100.00;59759.91;5078777;28;19921;-85
2021/12/01 04:42:33;;;;;;;;;;;;;;;-147.53;100.00;59759.91;5078774;28;19947;-85
2021/12/01 04:46:00;;;;;;;;;;;;;;;-147.53;100.00;59759.91;5078264;28;19921;-85
2021/12/01 04:49:24;;;;;;;;;;;;;;;-147.53;100.00;59759.91;5077933;28;19932;-84
2021/12/01 04:51:55;;;;;;;;;;;;;;;14.42;65.92;99245.38;5063852;28;19960;-84
2021/12/01 04:54:21;;;;;;;;;;;;;;;13.86;67.47;99236.66;5079368;28;20283;-85
2021/12/01 04:56:48;;;;;;;;;;;;;;;13.81;68.10;99247.06;5062452;28;20030;-84
2021/12/01 04:59:14;;;;;;;;;;;;;;;14.63;65.52;99234.44;5078221;28;19917;-84
2021/12/01 05:01:41;;;;;;;;;;;;;;;13.94;67.28;99230.56;5062807;28;19921;-84
2021/12/01 05:04:06;;;;;;;;;;;;;;;13.91;67.36;99241.69;5077969;28;19917;-83
2021/12/01 05:06:31;;;;;;;;;;;;;;;14.20;66.58;99224.69;5078208;28;19971;-85
2021/12/01 05:08:57;;;;;;;;;;;;;;;13.91;67.99;99209.94;5076610;28;19959;-84
2021/12/01 05:11:22;;;;;;;;;;;;;;;14.45;66.46;99218.75;5077542;28;19917;-84
2021/12/01 05:13:47;;;;;;;;;;;;;;;14.40;66.49;99203.84;5077698;28;19928;-84
2021/12/01 05:16:12;;;;;;;;;;;;;;;15.21;63.54;99187.38;5077145;28;20282;-83
2021/12/01 05:18:38;;;;;;;;;;;;;;;16.16;60.86;99185.63;5077567;28;19929;-84
2021/12/01 05:21:03;;;;;;;;;;;;;;;14.91;63.18;99183.78;5062669;28;20274;-84
2021/12/01 05:23:28;;;;;;;;;;;;;;;14.70;63.93;99209.28;5061301;28;20381;-85
2021/12/01 05:25:54;;;;;;;;;;;;;;;15.46;61.92;99176.88;5076944;28;20390;-83
2021/12/01 05:28:19;;;;;;;;;;;;;;;15.16;63.51;99181.53;5077839;28;19916;-84
2021/12/01 05:30:45;;;;;;;;;;;;;;;14.75;63.02;99188.91;5077468;28;19924;-85
2021/12/01 05:33:11;;;;;;;;;;;;;;;14.63;64.93;99185.44;5059820;28;20409;-84
2021/12/01 05:35:37;;;;;;;;;;;;;;;14.43;64.81;99182.69;5077344;28;19921;-84
2021/12/01 05:38:03;;;;;;;;;;;;;;;14.21;66.46;99188.34;5062429;28;19966;-85
2021/12/01 05:40:28;;;;;;;;;;;;;;;14.85;64.25;99178.91;5061256;28;20290;-83
2021/12/01 05:42:54;;;;;;;;;;;;;;;14.14;65.97;99188.84;5061649;28;20007;-85
2021/12/01 05:45:19;;;;;;;;;;;;;;;14.60;65.29;99178.41;5077635;28;20381;-84
2021/12/01 05:47:44;;;;;;;;;;;;;;;15.21;63.48;99163.72;5077349;28;20013;-84
2021/12/01 05:50:10;;;;;;;;;;;;;;;14.08;66.79;99178.53;5076275;28;20007;-85
2021/12/01 05:52:36;;;;;;;;;;;;;;;14.23;66.09;99176.28;5061752;28;20007;-85
2021/12/01 05:55:01;;;;;;;;;;;;;;;14.33;65.47;99169.03;5078171;28;20353;-85
2021/12/01 05:57:26;;;;;;;;;;;;;;;14.57;65.03;99166.94;5075990;28;20385;-84
2021/12/01 05:59:52;;;;;;;;;;;;;;;14.27;65.41;99150.53;5076870;28;19924;-85
2021/12/01 06:02:17;;;;;;;;;;;;;;;14.34;65.94;99149.00;5076330;28;19967;-87
2021/12/01 06:04:42;;;;;;;;;;;;;;;13.86;66.75;99146.09;5061613;28;19917;-85
2021/12/01 06:07:08;;;;;;;;;;;;;;;14.66;64.45;99155.22;5079470;28;19913;-85
2021/12/01 06:09:33;;;;;;;;;;;;;;;14.66;64.96;99131.63;5081589;28;19917;-88
2021/12/01 06:11:59;;;;;;;;;;;;;;;14.87;64.33;99131.50;5081670;28;19959;-87
2021/12/01 06:14:24;;;;;;;;;;;;;;;14.42;64.82;99123.81;5081068;28;19916;-85
2021/12/01 06:16:49;;;;;;;;;;;;;;;14.17;65.59;99125.16;5077090;28;19989;-89
2021/12/01 06:19:14;;;;;;;;;;;;;;;14.73;64.10;99133.78;5061774;28;19968;-83
2021/12/01 06:21:40;;;;;;;;;;;;;;;14.83;63.67;99112.88;5075857;28;19921;-86
2021/12/01 06:24:05;;;;;;;;;;;;;;;14.35;66.14;99106.31;5077557;28;19923;-85
2021/12/01 06:26:30;;;;;;;;;;;;;;;14.77;66.09;99119.72;5077370;28;19939;-84
2021/12/01 06:28:56;;;;;;;;;;;;;;;14.51;65.50;99116.69;5061617;28;19917;-86
2021/12/01 06:31:21;;;;;;;;;;;;;;;14.69;65.33;99109.56;5062156;28;19917;-85
2021/12/01 06:33:47;;;;;;;;;;;;;;;14.62;65.56;99110.28;5076746;28;19916;-86
2021/12/01 06:36:12;;;;;;;;;;;;;;;14.36;66.87;99105.34;5077636;28;19976;-87
2021/12/01 06:38:39;;;;;;;;;;;;;;;14.32;66.89;99107.44;5076759;28;20355;-84
2021/12/01 06:41:04;;;;;;;;;;;;;;;14.92;64.24;99106.56;5077596;28;19916;-83
2021/12/01 06:43:29;;;;;;;;;;;;;;;14.98;64.68;99096.97;5061551;28;20385;-83
2021/12/01 06:45:55;;;;;;;;;;;;;;;14.41;66.16;99086.72;5076781;28;20385;-84
2021/12/01 06:48:20;;;;;;;;;;;;;;;14.82;64.49;99076.59;5063377;28;19928;-86
2021/12/01 06:50:45;;;;;;;;;;;;;;;15.08;63.21;99078.72;5079008;28;19917;-84
2021/12/01 06:53:10;;;;;;;;;;;;;;;14.63;63.96;99077.47;5077955;28;19917;-85
2021/12/01 06:55:35;;;;;;;;;;;;;;;15.14;62.98;99080.88;5079835;28;19939;-85
2021/12/01 06:58:01;;;;;;;;;;;;;;;15.41;62.87;99060.16;5078291;28;19963;-88
2021/12/01 07:00:26;;;;;;;;;;;;;;;14.39;64.31;99056.09;5066905;28;19939;-88
2021/12/01 07:02:52;;;;;;;;;;;;;;;14.76;64.53;99063.56;5068022;28;20289;-87
2021/12/01 07:05:18;;;;;;;;;;;;;;;15.00;62.89;99059.53;5086254;28;20362;-85
2021/12/01 07:07:43;;;;;;;;;;;;;;;14.67;63.70;99053.53;5089658;28;19924;-85
2021/12/01 07:10:09;;;;;;;;;;;;;;;15.36;61.89;99059.75;5083622;28;19913;-87
2021/12/01 07:12:35;;;;;;;;;;;;;;;14.89;63.88;99057.84;5078031;28;20622;-86
2021/12/01 07:15:00;;;;;;;;;;;;;;;15.24;63.10;99040.00;5076873;28;19971;-84
2021/12/01 07:17:25;;;;;;;;;;;;;;;15.45;61.91;99039.78;5077147;28;20286;-89
2021/12/01 07:19:50;;;;;;;;;;;;;;;15.51;61.83;99036.47;5077003;28;19967;-85
2021/12/01 07:22:22;;;;;;;;;;;;;;;15.41;62.02;99030.19;5060532;28;19917;-84
2021/12/01 07:24:47;;;;;;;;;;;;;;;15.14;63.57;99033.69;5075719;28;19967;-84
2021/12/01 07:27:13;;;;;;;;;;;;;;;15.15;63.10;99025.38;5076498;28;19921;-84
2021/12/01 07:29:38;;;;;;;;;;;;;;;15.04;65.16;99039.19;5075969;28;19921;-84
2021/12/01 07:32:04;;;;;;;;;;;;;;;14.96;63.32;99063.53;5074679;28;19917;-83
2021/12/01 07:34:29;;;;;;;;;;;;;;;14.86;64.86;99053.53;5074558;28;20393;-82
2021/12/01 07:36:54;;;;;;;;;;;;;;;15.35;64.66;99053.44;5074896;28;20394;-83
2021/12/01 07:39:20;;;;;;;;;;;;;;;14.56;66.92;99046.34;5074778;28;19969;-82
2021/12/01 07:41:46;;;;;;;;;;;;;;;15.12;64.72;99047.47;5075102;28;19917;-83
2021/12/01 07:44:11;;;;;;;;;;;;;;;15.54;60.99;99055.22;5075124;28;19921;-83
2021/12/01 07:46:36;;;;;;;;;;;;;;;15.01;62.13;99050.38;5075050;28;19917;-83
2021/12/01 07:49:01;;;;;;;;;;;;;;;15.30;62.34;99049.44;5073516;28;19925;-84
2021/12/01 07:51:27;;;;;;;;;;;;;;;15.28;60.83;99051.44;5075104;28;19917;-84
2021/12/01 07:53:54;;;;;;;;;;;;;;;14.74;62.28;99060.13;5075374;28;20393;-84
2021/12/01 07:56:19;;;;;;;;;;;;;;;15.34;61.15;99068.06;5075241;28;19924;-86
2021/12/01 07:58:44;;;;;;;;;;;;;;;14.62;60.64;99059.41;5074870;28;19917;-83
2021/12/01 08:01:09;;;;;;;;;;;;;;;14.23;59.76;99061.22;5059000;28;19948;-84
2021/12/01 08:03:35;;;;;;;;;;;;;;;14.80;59.28;99054.09;5074790;28;19925;-84
2021/12/01 08:06:00;;;;;;;;;;;;;;;14.39;58.34;99058.81;5073560;28;19916;-84
2021/12/01 08:08:25;;;;;;;;;;;;;;;14.22;59.27;99075.81;5060716;28;19928;-85
2021/12/01 08:10:50;;;;;;;;;;;;;;;14.20;58.92;99061.50;5075824;28;19959;-85
2021/12/01 08:13:15;;;;;;;;;;;;;;;14.26;57.88;99060.94;5076191;28;19924;-84
2021/12/01 08:15:41;;;;;;;;;;;;;;;14.61;57.53;99078.59;5060537;28;19936;-85
2021/12/01 08:18:06;;;;;;;;;;;;;;;14.78;57.18;99061.56;5058360;28;19932;-87
2021/12/01 08:20:33;;;;;;;;;;;;;;;13.98;59.65;99090.66;5059417;28;19917;-84
2021/12/01 08:22:59;;;;;;;;;;;;;;;13.63;61.39;99078.31;5060076;28;19928;-85
2021/12/01 08:25:24;;;;;;;;;;;;;;;13.46;61.84;99087.97;5073940;28;19912;-83
2021/12/01 08:27:49;;;;;;;;;;;;;;;14.04;59.98;99073.78;5074645;28;19917;-84
2021/12/01 08:30:14;;;;;;;;;;;;;;;13.90;60.69;99058.69;5075781;28;19917;-85
2021/12/01 08:32:45;;;;;;;;;;;;;;;13.67;61.19;99059.91;5075306;28;19917;-84
2021/12/01 08:35:11;;;;;;;;;;;;;;;13.61;62.10;99054.00;5075437;28;19963;-87
2021/12/01 08:37:36;;;;;;;;;;;;;;;13.79;60.49;99059.66;5057595;28;20358;-84
2021/12/01 08:40:01;;;;;;;;;;;;;;;14.09;59.43;99060.59;5058599;28;19940;-82
2021/12/01 08:42:26;;;;;;;;;;;;;;;14.70;58.14;99066.84;5073057;28;20412;-83
2021/12/01 08:44:52;;;;;;;;;;;;;;;14.19;59.37;99071.50;5057282;28;19916;-85
2021/12/01 08:47:20;;;;;;;;;;;;;;;14.24;58.91;99095.59;5058667;28;19917;-86
2021/12/01 08:49:45;;;;;;;;;;;;;;;14.41;58.85;99100.31;5058510;28;19943;-85
2021/12/01 08:52:10;;;;;;;;;;;;;;;14.60;59.12;99102.22;5057645;28;19916;-85
2021/12/01 08:54:36;;;;;;;;;;;;;;;14.08;59.64;99126.84;5056522;28;19948;-83
2021/12/01 08:57:03;;;;;;;;;;;;;;;14.35;59.49;99125.38;5057246;28;20405;-83
2021/12/01 08:59:28;;;;;;;;;;;;;;;14.59;58.93;99129.56;5055391;28;19920;-83
2021/12/01 09:01:53;;;;;;;;;;;;;;;14.36;59.66;99137.97;5056644;28;20366;-84
2021/12/01 09:04:19;;;;;;;;;;;;;;;14.50;58.97;99137.56;5056875;28;20276;-82
2021/12/01 09:06:44;;;;;;;;;;;;;;;14.11;60.21;99129.28;5055323;28;19916;-84
2021/12/01 09:09:17;;;;;;;;;;;;;;;14.43;59.57;99139.16;5089338;28;20325;-83
2021/12/01 09:11:44;;;;;;;;;;;;;;;13.77;60.29;99148.63;5057785;28;20012;-84
2021/12/01 09:14:09;;;;;;;;;;;;;;;14.33;59.53;99132.81;5057642;28;19916;-84
2021/12/01 09:16:35;;;;;;;;;;;;;;;14.23;59.49;99134.66;5091528;28;19971;-84
2021/12/01 09:19:01;;;;;;;;;;;;;;;14.71;58.84;99147.53;5060543;28;20370;-83
2021/12/01 09:21:26;;;;;;;;;;;;;;;14.36;59.08;99154.31;5057253;28;19932;-84
2021/12/01 09:23:51;;;;;;;;;;;;;;;14.55;59.33;99161.63;5057551;28;20385;-84
2021/12/01 09:26:17;;;;;;;;;;;;;;;14.10;60.23;99157.50;5089576;28;19917;-84
2021/12/01 09:28:42;;;;;;;;;;;;;;;13.35;62.95;99166.84;5057327;28;19917;-83
2021/12/01 09:31:07;;;;;;;;;;;;;;;13.85;61.49;99168.84;5057649;28;19916;-86
2021/12/01 09:33:32;;;;;;;;;;;;;;;13.32;63.28;99170.63;5057235;28;20007;-85
2021/12/01 09:35:58;;;;;;;;;;;;;;;13.77;62.27;99173.09;5092760;28;19924;-83
2021/12/01 09:38:23;;;;;;;;;;;;;;;13.86;61.47;99171.44;5058816;28;20432;-85
2021/12/01 09:40:51;;;;;;;;;;;;;;;14.00;60.60;99187.38;5056408;28;20008;-85
2021/12/01 09:43:17;;;;;;;;;;;;;;;14.45;60.31;99175.22;5057220;28;19944;-84
2021/12/01 09:45:42;;;;;;;;;;;;;;;14.16;60.22;99175.13;5092123;28;19917;-85
2021/12/01 09:48:08;;;;;;;;;;;;;;;14.26;59.38;99183.31;5057727;28;19944;-85
2021/12/01 09:50:34;;;;;;;;;;;;;;;13.93;60.22;99177.16;5058064;28;19964;-87
2021/12/01 09:52:59;;;;;;;;;;;;;;;14.75;58.15;99184.34;5058054;28;19917;-86
2021/12/01 09:55:24;;;;;;;;;;;;;;;14.38;59.47;99190.38;5058091;28;20424;-85
2021/12/01 09:57:54;;;;;;;;;;;;;;;14.54;59.17;99195.31;5057389;28;20027;-85
2021/12/01 10:00:19;;;;;;;;;;;;;;;14.23;60.49;99199.91;5059720;28;19923;-84
2021/12/01 10:02:44;;;;;;;;;;;;;;;14.19;60.10;99196.59;5092860;28;19916;-86
2021/12/01 10:05:09;;;;;;;;;;;;;;;14.51;58.74;99193.72;5063015;28;19923;-85
2021/12/01 10:07:35;;;;;;;;;;;;;;;13.41;61.48;99197.03;5061605;28;19987;-85
2021/12/01 10:10:05;;;;;;;;;;;;;;;13.21;62.46;99192.41;5057410;28;19923;-84
2021/12/01 10:12:47;;;;;;;;;;;;;;;14.26;60.27;99199.66;5057260;28;19917;-85
2021/12/01 10:15:13;;;;;;;;;;;;;;;14.15;60.73;99189.72;5056993;28;19959;-83
2021/12/01 10:17:38;;;;;;;;;;;;;;;14.67;58.90;99190.50;5054600;28;20374;-84
2021/12/01 10:20:14;;;;;;;;;;;;;;;14.37;59.83;99180.50;5055212;28;19917;-86
2021/12/01 10:22:39;;;;;;;;;;;;;;;14.45;59.45;99177.94;5056585;28;19917;-85
2021/12/01 10:25:25;;;;;;;;;;;;;;;14.92;57.69;99181.94;5089697;28;19962;-86
2021/12/01 10:27:50;;;;;;;;;;;;;;;14.54;58.04;99178.97;5055670;28;19978;-84
2021/12/01 10:30:34;;;;;;;;;;;;;;;15.05;57.80;99169.75;5056295;28;20328;-85
2021/12/01 10:33:06;;;;;;;;;;;;;;;13.83;59.94;99174.41;5056389;28;19949;-86
2021/12/01 10:35:35;;;;;;;;;;;;;;;14.50;58.97;99170.22;5056417;28;19927;-85
2021/12/01 10:38:01;;;;;;;;;;;;;;;14.37;58.49;99180.50;5055932;28;20015;-85
2021/12/01 10:40:26;;;;;;;;;;;;;;;14.49;58.60;99165.78;5054953;28;19963;-85
2021/12/01 10:42:59;;;;;;;;;;;;;;;14.82;57.52;99163.72;5055358;28;19917;-85
2021/12/01 10:45:30;;;;;;;;;;;;;;;14.17;58.55;99161.38;5056924;28;19917;-84
2021/12/01 10:47:56;;;;;;;;;;;;;;;14.25;58.05;99162.56;5056689;28;19931;-85
2021/12/01 10:50:23;;;;;;;;;;;;;;;14.85;56.90;99168.88;5055989;28;19925;-86
2021/12/01 10:52:54;;;;;;;;;;;;;;;14.86;56.93;99164.31;5056070;28;19977;-83
2021/12/01 10:55:21;;;;;;;;;;;;;;;15.16;56.90;99160.56;5057749;28;19995;-85
2021/12/01 10:57:54;;;;;;;;;;;;;;;14.07;57.70;99165.06;5055751;28;19917;-84
2021/12/01 11:00:26;;;;;;;;;;;;;;;14.35;57.82;99183.34;5089016;28;20008;-84
2021/12/01 11:02:52;;;;;;;;;;;;;;;14.33;56.60;99176.34;5058378;28;19963;-84
2021/12/01 11:05:25;;;;;;;;;;;;;;;14.07;57.72;99176.81;5059745;28;20321;-85
2021/12/01 11:07:50;;;;;;;;;;;;;;;14.35;56.58;99168.91;5058604;28;19913;-84
2021/12/01 11:10:18;;;;;;;;;;;;;;;14.47;56.19;99181.38;5059798;28;19923;-87
2021/12/01 11:12:45;;;;;;;;;;;;;;;14.40;56.32;99176.63;5059568;28;20370;-86
2021/12/01 11:15:21;;;;;;;;;;;;;;;14.49;55.70;99170.34;5061311;28;19952;-86
2021/12/01 11:17:47;;;;;;;;;;;;;;;14.25;54.88;99151.69;5061440;28;19931;-87
2021/12/01 11:20:30;;;;;;;;;;;;;;;14.17;55.75;99166.81;5061483;28;20059;-86
2021/12/01 11:23:05;;;;;;;;;;;;;;;14.85;54.69;99166.16;5059443;28;19917;-85
2021/12/01 11:25:32;;;;;;;;;;;;;;;14.54;54.91;99168.94;5060511;28;20294;-86
2021/12/01 11:27:59;;;;;;;;;;;;;;;14.47;55.68;99175.94;5060567;28;19923;-86
2021/12/01 11:30:24;;;;;;;;;;;;;;;14.36;55.66;99167.91;5061275;28;19971;-84
2021/12/01 11:32:49;;;;;;;;;;;;;;;14.62;54.90;99167.44;5060218;28;19917;-85
2021/12/01 11:35:14;;;;;;;;;;;;;;;14.18;56.04;99179.44;5093479;28;19971;-86
2021/12/01 11:37:41;;;;;;;;;;;;;;;14.69;54.74;99165.88;5058929;28;20314;-87
2021/12/01 11:40:06;;;;;;;;;;;;;;;14.66;54.42;99156.13;5093490;28;19921;-86
2021/12/01 11:42:32;;;;;;;;;;;;;;;14.38;55.26;99165.91;5060946;28;19952;-87
2021/12/01 11:44:59;;;;;;;;;;;;;;;14.14;55.75;99172.53;5062851;28;19916;-86
2021/12/01 11:47:25;;;;;;;;;;;;;;;14.22;55.59;99169.16;5095143;28;19948;-88
2021/12/01 11:49:51;;;;;;;;;;;;;;;14.86;54.01;99162.44;5061033;28;20375;-89
2021/12/01 11:52:18;;;;;;;;;;;;;;;14.51;54.64;99161.06;5059767;28;19955;-86
2021/12/01 11:54:44;;;;;;;;;;;;;;;14.91;54.43;99150.25;5060560;28;20011;-87
2021/12/01 11:57:10;;;;;;;;;;;;;;;14.91;53.64;99169.31;5060915;28;19916;-86
2021/12/01 11:59:37;;;;;;;;;;;;;;;13.98;55.57;99153.19;5060379;28;20275;-87
2021/12/01 12:02:05;;;;;;;;;;;;;;;13.90;56.14;99163.84;5060560;28;20318;-87
2021/12/01 12:04:37;;;;;;;;;;;;;;;14.33;54.71;99154.59;5077110;28;19920;-88
2021/12/01 12:07:17;;;;;;;;;;;;;;;14.07;55.19;99163.22;5076052;28;19924;-88
2021/12/01 12:10:00;;;;;;;;;;;;;;;14.58;54.12;99168.66;5059367;28;19916;-87
2021/12/01 12:12:26;;;;;;;;;;;;;;;14.16;54.09;99161.53;5058962;28;19917;-86
2021/12/01 12:14:52;;;;;;;;;;;;;;;14.58;53.63;99171.38;5057966;28;20255;-88
2021/12/01 12:17:19;;;;;;;;;;;;;;;14.26;53.67;99158.84;5057102;28;19921;-87
2021/12/01 12:19:55;;;;;;;;;;;;;;;14.36;53.70;99167.91;5057520;28;19921;-87
2021/12/01 12:22:37;;;;;;;;;;;;;;;14.89;52.74;99159.41;5057370;28;19975;-86
2021/12/01 12:25:05;;;;;;;;;;;;;;;14.19;53.81;99163.97;5059002;28;19962;-86
2021/12/01 12:27:32;;;;;;;;;;;;;;;14.37;53.90;99153.28;5058910;28;20441;-86
2021/12/01 12:29:59;;;;;;;;;;;;;;;14.97;52.51;99160.56;5059820;28;19916;-86
2021/12/01 12:32:29;;;;;;;;;;;;;;;14.74;53.13;99163.56;5061274;28;19917;-87
2021/12/01 12:34:54;;;;;;;;;;;;;;;14.51;53.59;99152.91;5093267;28;19920;-87
2021/12/01 12:37:21;;;;;;;;;;;;;;;14.77;53.13;99159.72;5060453;28;19928;-87
2021/12/01 12:39:47;;;;;;;;;;;;;;;14.42;54.15;99164.63;5059690;28;19921;-87
2021/12/01 12:42:12;;;;;;;;;;;;;;;14.35;54.47;99171.63;5058741;28;19935;-89
2021/12/01 12:44:39;;;;;;;;;;;;;;;14.52;53.86;99165.50;5054359;28;19921;-92
2021/12/01 12:47:06;;;;;;;;;;;;;;;14.53;54.22;99169.09;5077379;28;19917;-90
2021/12/01 12:49:35;;;;;;;;;;;;;;;14.25;54.26;99158.00;5060672;28;19960;-91
2021/12/01 12:52:20;;;;;;;;;;;;;;;14.14;55.05;99167.09;5075487;28;19920;-88
2021/12/01 12:54:46;;;;;;;;;;;;;;;14.11;55.27;99167.38;5067579;28;19951;-91
2021/12/01 12:57:14;;;;;;;;;;;;;;;14.57;53.84;99175.97;5066235;28;19921;-91
2021/12/01 12:59:39;;;;;;;;;;;;;;;14.83;53.30;99170.88;5061067;28;19921;-90